createdAt,value
2018-04-22T00:00:21.158Z,8.82
2018-04-22T00:00:55.187Z,9.15
2018-04-22T00:01:28.452Z,8.82
2018-04-22T00:02:01.740Z,8.35
2018-04-22T00:02:34.994Z,8.57
2018-04-22T00:03:09.034Z,8.27
2018-04-22T00:03:42.288Z,9.00
2018-04-22T00:04:15.552Z,8.15
2018-04-22T00:04:49.584Z,8.60
2018-04-22T00:05:22.845Z,8.57
2018-04-22T00:05:56.107Z,8.05
2018-04-22T00:06:30.141Z,8.13
2018-04-22T00:07:03.416Z,8.88
2018-04-22T00:07:36.688Z,8.10
2018-04-22T00:08:09.951Z,8.65
2018-04-22T00:08:43.216Z,8.05
2018-04-22T00:09:17.243Z,7.37
2018-04-22T00:09:50.521Z,8.05
2018-04-22T00:10:23.780Z,8.90
2018-04-22T00:10:57.820Z,7.70
2018-04-22T00:11:31.109Z,8.07
2018-04-22T00:12:04.403Z,9.05
2018-04-22T00:12:37.677Z,8.80
2018-04-22T00:13:11.719Z,7.87
2018-04-22T00:13:45.748Z,6.90
2018-04-22T00:14:19.004Z,7.70
2018-04-22T00:14:52.264Z,7.87
2018-04-22T00:15:26.294Z,7.22
2018-04-22T00:15:59.567Z,8.02
2018-04-22T00:16:32.848Z,8.52
2018-04-22T00:17:06.144Z,8.38
2018-04-22T00:17:39.405Z,8.27
2018-04-22T00:18:12.659Z,8.30
2018-04-22T00:18:46.697Z,8.18
2018-04-22T00:19:19.949Z,8.50
2018-04-22T00:19:53.980Z,8.75
2018-04-22T00:20:27.244Z,9.27
2018-04-22T00:21:00.524Z,8.18
2018-04-22T00:21:33.784Z,8.13
2018-04-22T00:22:07.093Z,7.90
2018-04-22T00:22:41.108Z,8.52
2018-04-22T00:23:14.368Z,7.97
2018-04-22T00:23:47.645Z,8.20
2018-04-22T00:24:20.909Z,7.78
2018-04-22T00:24:54.166Z,8.60
2018-04-22T00:25:27.432Z,8.65
2018-04-22T00:26:00.699Z,8.48
2018-04-22T00:26:33.960Z,8.30
2018-04-22T00:27:07.242Z,8.88
2018-04-22T00:27:40.532Z,8.20
2018-04-22T00:28:13.809Z,8.45
2018-04-22T00:28:47.081Z,8.73
2018-04-22T00:29:20.348Z,8.32
2018-04-22T00:29:53.605Z,8.48
2018-04-22T00:30:27.631Z,8.70
2018-04-22T00:31:00.916Z,8.57
2018-04-22T00:31:34.231Z,7.80
2018-04-22T00:32:07.548Z,8.35
2018-04-22T00:32:41.592Z,7.90
2018-04-22T00:33:14.859Z,8.13
2018-04-22T00:33:48.129Z,8.88
2018-04-22T00:34:21.391Z,7.82
2018-04-22T00:34:54.650Z,7.70
2018-04-22T00:35:28.682Z,8.68
2018-04-22T00:36:01.962Z,9.05
2018-04-22T00:36:35.233Z,8.02
2018-04-22T00:37:09.256Z,7.60
2018-04-22T00:37:43.309Z,7.87
2018-04-22T00:38:17.340Z,7.55
2018-04-22T00:38:50.612Z,7.80
2018-04-22T00:39:23.881Z,7.32
2018-04-22T00:39:57.904Z,8.68
2018-04-22T00:40:31.172Z,8.57
2018-04-22T00:41:04.433Z,8.20
2018-04-22T00:41:38.471Z,8.90
2018-04-22T00:42:11.977Z,8.45
2018-04-22T00:42:45.272Z,8.35
2018-04-22T00:43:18.553Z,7.70
2018-04-22T00:43:51.825Z,7.97
2018-04-22T00:44:25.113Z,8.82
2018-04-22T00:44:58.364Z,7.97
2018-04-22T00:45:31.835Z,8.07
2018-04-22T00:46:05.888Z,8.00
2018-04-22T00:46:39.149Z,8.90
2018-04-22T00:47:12.417Z,9.00
2018-04-22T00:47:45.709Z,8.90
2018-04-22T00:48:18.995Z,8.63
2018-04-22T00:48:52.248Z,8.35
2018-04-22T00:49:25.515Z,8.60
2018-04-22T00:49:58.789Z,7.75
2018-04-22T00:50:32.053Z,8.07
2018-04-22T00:51:05.325Z,8.05
2018-04-22T00:51:39.353Z,7.68
2018-04-22T00:52:12.629Z,8.13
2018-04-22T00:52:45.903Z,8.38
2018-04-22T00:53:19.264Z,8.40
2018-04-22T00:54:04.348Z,8.43
2018-04-22T00:54:37.624Z,8.88
2018-04-22T00:55:10.901Z,9.15
2018-04-22T00:55:44.157Z,9.50
2018-04-22T00:56:18.192Z,9.07
2018-04-22T00:56:51.460Z,9.88
2018-04-22T00:57:24.734Z,9.35
2018-04-22T00:57:58.019Z,8.35
2018-04-22T00:58:31.272Z,8.13
2018-04-22T00:59:05.296Z,7.45
2018-04-22T00:59:38.583Z,8.73
2018-04-22T01:00:11.839Z,8.40
2018-04-22T01:00:45.108Z,8.93
2018-04-22T01:01:18.378Z,8.10
2018-04-22T01:01:51.649Z,8.35
2018-04-22T01:02:24.905Z,8.77
2018-04-22T01:02:58.180Z,8.25
2018-04-22T01:03:31.459Z,9.07
2018-04-22T01:04:04.732Z,9.07
2018-04-22T01:04:38.001Z,8.15
2018-04-22T01:05:11.284Z,8.50
2018-04-22T01:05:44.540Z,8.50
2018-04-22T01:06:17.805Z,8.13
2018-04-22T01:06:51.887Z,8.18
2018-04-22T01:07:25.151Z,9.57
2018-04-22T01:07:58.432Z,8.70
2018-04-22T01:08:31.704Z,8.65
2018-04-22T01:09:06.744Z,8.32
2018-04-22T01:09:40.028Z,9.45
2018-04-22T01:10:13.299Z,8.77
2018-04-22T01:10:46.557Z,7.93
2018-04-22T01:11:19.812Z,8.38
2018-04-22T01:11:53.088Z,8.35
2018-04-22T01:12:26.372Z,8.75
2018-04-22T01:12:59.632Z,8.40
2018-04-22T01:13:33.656Z,8.55
2018-04-22T01:14:06.914Z,9.10
2018-04-22T01:14:40.200Z,8.63
2018-04-22T01:15:14.243Z,8.80
2018-04-22T01:15:47.530Z,9.43
2018-04-22T01:16:20.852Z,8.88
2018-04-22T01:16:54.159Z,8.65
2018-04-22T01:17:27.445Z,8.55
2018-04-22T01:18:00.717Z,8.65
2018-04-22T01:18:33.981Z,8.52
2018-04-22T01:19:07.257Z,8.65
2018-04-22T01:19:41.318Z,8.55
2018-04-22T01:20:14.582Z,9.02
2018-04-22T01:20:47.862Z,8.52
2018-04-22T01:21:21.141Z,8.70
2018-04-22T01:21:54.440Z,8.50
2018-04-22T01:22:27.698Z,9.00
2018-04-22T01:23:00.975Z,8.32
2018-04-22T01:23:34.252Z,9.40
2018-04-22T01:24:07.533Z,8.10
2018-04-22T01:24:40.808Z,8.85
2018-04-22T01:25:14.098Z,7.90
2018-04-22T01:25:47.381Z,8.48
2018-04-22T01:26:20.663Z,9.02
2018-04-22T01:26:53.955Z,8.93
2018-04-22T01:27:27.211Z,8.80
2018-04-22T01:28:00.476Z,8.88
2018-04-22T01:28:33.744Z,8.60
2018-04-22T01:29:07.765Z,8.32
2018-04-22T01:29:41.027Z,7.97
2018-04-22T01:30:14.305Z,8.48
2018-04-22T01:30:47.569Z,8.27
2018-04-22T01:31:20.856Z,8.30
2018-04-22T01:31:54.902Z,9.10
2018-04-22T01:32:28.185Z,8.85
2018-04-22T01:33:01.467Z,8.02
2018-04-22T01:33:34.733Z,7.70
2018-04-22T01:34:08.010Z,8.90
2018-04-22T01:34:41.289Z,8.95
2018-04-22T01:35:14.558Z,7.93
2018-04-22T01:35:47.829Z,8.13
2018-04-22T01:36:21.874Z,8.93
2018-04-22T01:36:55.151Z,8.07
2018-04-22T01:37:28.405Z,7.82
2018-04-22T01:38:01.673Z,8.70
2018-04-22T01:38:34.938Z,8.70
2018-04-22T01:39:08.204Z,9.00
2018-04-22T01:39:42.240Z,8.70
2018-04-22T01:40:15.501Z,9.50
2018-04-22T01:40:48.772Z,9.00
2018-04-22T01:41:22.812Z,9.20
2018-04-22T01:41:56.073Z,8.50
2018-04-22T01:42:29.377Z,9.07
2018-04-22T01:43:02.631Z,8.60
2018-04-22T01:43:35.926Z,9.18
2018-04-22T01:44:09.197Z,8.23
2018-04-22T01:44:42.466Z,8.40
2018-04-22T01:45:16.484Z,8.23
2018-04-22T01:45:49.747Z,8.93
2018-04-22T01:46:23.011Z,8.48
2018-04-22T01:46:57.044Z,8.48
2018-04-22T01:47:30.308Z,8.77
2018-04-22T01:48:03.564Z,9.75
2018-04-22T01:48:37.609Z,8.70
2018-04-22T01:49:10.876Z,8.02
2018-04-22T01:49:44.140Z,8.52
2018-04-22T01:50:17.416Z,9.60
2018-04-22T01:50:50.679Z,9.10
2018-04-22T01:51:24.722Z,9.13
2018-04-22T01:51:57.986Z,9.50
2018-04-22T01:52:31.278Z,9.52
2018-04-22T01:53:04.544Z,9.07
2018-04-22T01:53:37.856Z,9.43
2018-04-22T01:54:11.121Z,9.30
2018-04-22T01:54:44.421Z,9.55
2018-04-22T01:55:17.684Z,9.60
2018-04-22T01:55:50.953Z,10.82
2018-04-22T01:56:24.232Z,8.55
2018-04-22T01:56:57.500Z,10.05
2018-04-22T01:57:30.789Z,9.43
2018-04-22T01:58:04.072Z,10.30
2018-04-22T01:58:37.352Z,9.88
2018-04-22T01:59:10.633Z,10.82
2018-04-22T01:59:43.912Z,10.15
2018-04-22T02:00:17.204Z,11.05
2018-04-22T02:00:50.483Z,10.20
2018-04-22T02:01:23.766Z,10.20
2018-04-22T02:01:57.073Z,9.90
2018-04-22T02:02:30.361Z,10.35
2018-04-22T02:03:03.653Z,9.52
2018-04-22T02:03:36.936Z,10.10
2018-04-22T02:04:10.217Z,11.02
2018-04-22T02:04:44.243Z,9.80
2018-04-22T02:05:17.536Z,10.18
2018-04-22T02:05:50.828Z,10.50
2018-04-22T02:06:24.101Z,9.60
2018-04-22T02:06:57.380Z,9.82
2018-04-22T02:07:30.653Z,10.15
2018-04-22T02:08:03.945Z,10.15
2018-04-22T02:08:37.230Z,9.50
2018-04-22T02:09:10.506Z,11.52
2018-04-22T02:09:43.784Z,10.02
2018-04-22T02:10:17.315Z,9.13
2018-04-22T02:10:50.576Z,10.25
2018-04-22T02:11:23.853Z,10.40
2018-04-22T02:11:57.201Z,11.50
2018-04-22T02:12:30.461Z,10.68
2018-04-22T02:13:03.745Z,11.68
2018-04-22T02:13:37.029Z,10.20
2018-04-22T02:14:10.302Z,10.63
2018-04-22T02:14:43.576Z,10.52
2018-04-22T02:15:16.852Z,11.15
2018-04-22T02:15:50.892Z,10.35
2018-04-22T02:16:24.170Z,11.20
2018-04-22T02:16:57.450Z,11.93
2018-04-22T02:17:30.734Z,10.60
2018-04-22T02:18:03.995Z,10.57
2018-04-22T02:18:37.300Z,10.70
2018-04-22T02:19:10.603Z,10.80
2018-04-22T02:19:43.861Z,11.10
2018-04-22T02:20:17.138Z,11.10
2018-04-22T02:20:50.408Z,10.73
2018-04-22T02:21:23.696Z,11.68
2018-04-22T02:21:56.965Z,11.25
2018-04-22T02:22:30.236Z,11.00
2018-04-22T02:23:03.516Z,11.77
2018-04-22T02:23:36.805Z,11.38
2018-04-22T02:24:10.108Z,11.25
2018-04-22T02:24:44.144Z,11.15
2018-04-22T02:25:18.180Z,11.32
2018-04-22T02:25:51.466Z,11.55
2018-04-22T02:26:24.733Z,11.50
2018-04-22T02:26:58.009Z,10.23
2018-04-22T02:27:31.276Z,12.00
2018-04-22T02:28:05.304Z,11.12
2018-04-22T02:28:38.609Z,10.48
2018-04-22T02:29:11.890Z,11.57
2018-04-22T02:29:45.175Z,11.12
2018-04-22T02:30:18.464Z,10.73
2018-04-22T02:30:51.727Z,10.82
2018-04-22T02:31:25.013Z,10.93
2018-04-22T02:31:58.280Z,11.32
2018-04-22T02:32:31.580Z,11.65
2018-04-22T02:33:04.881Z,10.98
2018-04-22T02:33:39.148Z,9.73
2018-04-22T02:34:12.441Z,11.65
2018-04-22T02:34:45.939Z,10.75
2018-04-22T02:35:19.209Z,10.48
2018-04-22T02:35:52.492Z,10.75
2018-04-22T02:36:25.769Z,10.65
2018-04-22T02:36:59.040Z,10.60
2018-04-22T02:37:32.316Z,10.90
2018-04-22T02:38:05.608Z,10.13
2018-04-22T02:38:38.884Z,10.88
2018-04-22T02:39:12.172Z,11.15
2018-04-22T02:39:45.448Z,10.43
2018-04-22T02:40:18.737Z,11.10
2018-04-22T02:40:52.013Z,10.88
2018-04-22T02:41:25.298Z,11.77
2018-04-22T02:42:00.078Z,10.40
2018-04-22T02:42:33.356Z,11.77
2018-04-22T02:43:06.632Z,10.77
2018-04-22T02:43:39.983Z,11.02
2018-04-22T02:44:13.217Z,10.85
2018-04-22T02:44:46.508Z,10.55
2018-04-22T02:45:19.785Z,10.65
2018-04-22T02:45:53.125Z,11.15
2018-04-22T02:46:26.406Z,9.68
2018-04-22T02:46:59.676Z,10.70
2018-04-22T02:47:32.940Z,10.10
2018-04-22T02:48:06.233Z,9.85
2018-04-22T02:48:39.501Z,10.30
2018-04-22T02:49:12.807Z,10.77
2018-04-22T02:49:46.327Z,10.63
2018-04-22T02:50:19.604Z,11.55
2018-04-22T02:50:52.894Z,10.75
2018-04-22T02:51:26.384Z,10.18
2018-04-22T02:51:59.707Z,10.57
2018-04-22T02:52:32.953Z,11.02
2018-04-22T02:53:06.229Z,11.88
2018-04-22T02:53:39.513Z,11.12
2018-04-22T02:54:12.781Z,11.38
2018-04-22T02:54:46.085Z,11.05
2018-04-22T02:55:19.353Z,12.10
2018-04-22T02:55:52.625Z,11.40
2018-04-22T02:56:25.896Z,10.60
2018-04-22T02:56:59.182Z,11.60
2018-04-22T02:57:32.454Z,10.68
2018-04-22T02:58:05.733Z,9.25
2018-04-22T02:58:38.998Z,10.50
2018-04-22T02:59:12.288Z,11.23
2018-04-22T02:59:45.581Z,10.38
2018-04-22T03:00:18.876Z,10.70
2018-04-22T03:00:52.149Z,11.43
2018-04-22T03:01:25.417Z,11.23
2018-04-22T03:01:58.708Z,11.10
2018-04-22T03:02:31.979Z,10.88
2018-04-22T03:03:05.257Z,10.50
2018-04-22T03:03:38.522Z,10.50
2018-04-22T03:04:11.820Z,10.75
2018-04-22T03:04:45.122Z,10.75
2018-04-22T03:05:18.398Z,11.40
2018-04-22T03:05:51.671Z,11.35
2018-04-22T03:06:24.997Z,11.50
2018-04-22T03:06:58.268Z,11.25
2018-04-22T03:07:31.539Z,10.68
2018-04-22T03:08:04.827Z,10.93
2018-04-22T03:08:38.098Z,12.15
2018-04-22T03:09:12.312Z,10.80
2018-04-22T03:09:45.596Z,10.80
2018-04-22T03:10:18.874Z,10.98
2018-04-22T03:10:52.148Z,11.93
2018-04-22T03:11:25.432Z,11.55
2018-04-22T03:11:58.698Z,11.98
2018-04-22T03:12:32.742Z,10.32
2018-04-22T03:13:06.017Z,11.25
2018-04-22T03:13:39.292Z,10.80
2018-04-22T03:14:12.572Z,11.23
2018-04-22T03:14:46.617Z,11.68
2018-04-22T03:15:19.900Z,11.90
2018-04-22T03:15:53.184Z,12.07
2018-04-22T03:16:27.225Z,11.23
2018-04-22T03:17:00.492Z,11.00
2018-04-22T03:17:33.765Z,11.45
2018-04-22T03:18:07.032Z,11.90
2018-04-22T03:18:41.072Z,12.32
2018-04-22T03:19:14.364Z,11.55
2018-04-22T03:19:47.653Z,11.45
2018-04-22T03:20:20.984Z,11.95
2018-04-22T03:20:54.260Z,12.13
2018-04-22T03:21:27.527Z,12.93
2018-04-22T03:22:01.581Z,11.43
2018-04-22T03:22:34.848Z,12.70
2018-04-22T03:23:08.111Z,11.60
2018-04-22T03:23:41.385Z,12.77
2018-04-22T03:24:14.681Z,12.25
2018-04-22T03:24:47.965Z,11.73
2018-04-22T03:25:21.266Z,12.63
2018-04-22T03:25:54.521Z,12.85
2018-04-22T03:26:27.796Z,11.45
2018-04-22T03:27:01.078Z,11.73
2018-04-22T03:27:34.357Z,11.98
2018-04-22T03:28:07.640Z,10.85
2018-04-22T03:28:41.673Z,12.00
2018-04-22T03:29:14.958Z,12.45
2018-04-22T03:29:48.232Z,11.43
2018-04-22T03:30:21.517Z,11.82
2018-04-22T03:30:54.807Z,12.35
2018-04-22T03:31:28.079Z,11.85
2018-04-22T03:32:01.348Z,11.05
2018-04-22T03:32:34.939Z,12.27
2018-04-22T03:33:08.223Z,11.25
2018-04-22T03:33:41.493Z,11.95
2018-04-22T03:34:14.790Z,11.40
2018-04-22T03:34:48.076Z,11.88
2018-04-22T03:35:21.352Z,11.52
2018-04-22T03:35:54.633Z,11.95
2018-04-22T03:36:27.913Z,11.05
2018-04-22T03:37:01.205Z,11.18
2018-04-22T03:37:34.494Z,12.07
2018-04-22T03:38:08.539Z,11.85
2018-04-22T03:38:41.828Z,12.02
2018-04-22T03:39:15.132Z,10.75
2018-04-22T03:39:48.416Z,12.45
2018-04-22T03:40:21.702Z,10.98
2018-04-22T03:40:54.988Z,11.32
2018-04-22T03:41:28.268Z,11.73
2018-04-22T03:42:02.319Z,10.93
2018-04-22T03:42:35.632Z,11.00
2018-04-22T03:43:08.881Z,10.23
2018-04-22T03:43:42.142Z,10.80
2018-04-22T03:44:15.420Z,10.85
2018-04-22T03:44:48.703Z,10.63
2018-04-22T03:45:21.988Z,10.85
2018-04-22T03:45:55.261Z,10.65
2018-04-22T03:46:28.528Z,11.00
2018-04-22T03:47:01.806Z,10.60
2018-04-22T03:47:35.860Z,10.80
2018-04-22T03:48:09.130Z,10.27
2018-04-22T03:48:42.416Z,11.02
2018-04-22T03:49:16.466Z,9.80
2018-04-22T03:49:50.519Z,11.40
2018-04-22T03:50:23.808Z,11.95
2018-04-22T03:50:57.089Z,9.80
2018-04-22T03:51:31.167Z,11.25
2018-04-22T03:52:05.190Z,11.10
2018-04-22T03:52:38.466Z,10.90
2018-04-22T03:53:11.759Z,10.52
2018-04-22T03:53:45.017Z,10.82
2018-04-22T03:54:18.292Z,10.32
2018-04-22T03:54:51.584Z,12.88
2018-04-22T03:55:24.852Z,10.60
2018-04-22T03:55:58.128Z,10.63
2018-04-22T03:56:31.404Z,11.60
2018-04-22T03:57:04.689Z,11.93
2018-04-22T03:57:37.962Z,11.77
2018-04-22T03:58:11.249Z,10.65
2018-04-22T03:58:44.524Z,10.15
2018-04-22T03:59:17.800Z,12.00
2018-04-22T03:59:51.088Z,11.40
2018-04-22T04:00:24.353Z,12.88
2018-04-22T04:00:57.632Z,11.95
2018-04-22T04:01:30.903Z,12.52
2018-04-22T04:02:04.205Z,11.77
2018-04-22T04:02:37.468Z,12.57
2018-04-22T04:03:10.739Z,11.57
2018-04-22T04:03:44.022Z,11.77
2018-04-22T04:04:17.287Z,12.30
2018-04-22T04:04:50.872Z,13.27
2018-04-22T04:05:24.152Z,11.48
2018-04-22T04:05:57.433Z,12.77
2018-04-22T04:06:30.720Z,13.05
2018-04-22T04:07:04.759Z,12.18
2018-04-22T04:07:38.020Z,13.15
2018-04-22T04:08:11.299Z,12.50
2018-04-22T04:08:44.577Z,12.52
2018-04-22T04:09:17.848Z,12.45
2018-04-22T04:09:51.136Z,11.75
2018-04-22T04:10:24.540Z,12.35
2018-04-22T04:10:57.824Z,13.40
2018-04-22T04:11:31.109Z,12.98
2018-04-22T04:12:04.401Z,13.82
2018-04-22T04:12:38.435Z,12.65
2018-04-22T04:13:11.713Z,13.68
2018-04-22T04:13:45.765Z,12.75
2018-04-22T04:14:19.041Z,12.27
2018-04-22T04:14:52.402Z,12.25
2018-04-22T04:15:25.684Z,12.45
2018-04-22T04:15:58.968Z,11.52
2018-04-22T04:16:32.246Z,13.40
2018-04-22T04:17:05.512Z,12.98
2018-04-22T04:17:38.786Z,13.05
2018-04-22T04:19:38.956Z,13.55
2018-04-22T04:20:24.014Z,13.50
2018-04-22T04:21:09.334Z,14.68
2018-04-22T04:21:54.387Z,14.63
2018-04-22T04:22:39.581Z,13.70
2018-04-22T04:23:12.872Z,13.23
2018-04-22T04:25:37.489Z,13.55
2018-04-22T04:26:33.977Z,13.52
2018-04-22T04:28:30.405Z,13.40
2018-04-22T04:29:03.673Z,13.38
2018-04-22T04:29:36.943Z,13.43
2018-04-22T04:30:10.220Z,13.25
2018-04-22T04:30:43.496Z,13.85
2018-04-22T04:31:16.768Z,14.07
2018-04-22T04:31:50.040Z,13.85
2018-04-22T04:32:23.316Z,12.75
2018-04-22T04:32:56.593Z,12.77
2018-04-22T04:33:29.856Z,14.20
2018-04-22T04:34:03.892Z,13.35
2018-04-22T04:34:37.174Z,14.18
2018-04-22T04:35:10.465Z,13.75
2018-04-22T04:35:43.737Z,14.63
2018-04-22T04:36:17.014Z,13.90
2018-04-22T04:36:50.285Z,14.93
2018-04-22T04:37:23.549Z,14.40
2018-04-22T04:37:57.589Z,13.62
2018-04-22T04:38:30.848Z,13.30
2018-04-22T04:39:04.128Z,13.50
2018-04-22T04:39:37.400Z,14.10
2018-04-22T04:40:10.698Z,14.02
2018-04-22T04:40:43.963Z,14.35
2018-04-22T04:41:17.233Z,13.85
2018-04-22T04:41:50.522Z,15.18
2018-04-22T04:42:23.796Z,14.85
2018-04-22T04:42:57.064Z,13.68
2018-04-22T04:43:30.370Z,14.05
2018-04-22T04:44:04.387Z,14.52
2018-04-22T04:44:37.651Z,14.85
2018-04-22T04:45:10.936Z,14.27
2018-04-22T04:45:44.212Z,13.98
2018-04-22T04:46:17.489Z,13.57
2018-04-22T04:46:50.776Z,13.30
2018-04-22T04:47:24.045Z,13.43
2018-04-22T04:47:57.329Z,13.62
2018-04-22T04:48:30.595Z,12.57
2018-04-22T04:49:03.870Z,14.13
2018-04-22T04:49:37.151Z,13.95
2018-04-22T04:50:10.429Z,13.52
2018-04-22T04:50:43.701Z,13.15
2018-04-22T04:51:17.737Z,12.07
2018-04-22T04:51:51.017Z,13.55
2018-04-22T04:52:24.288Z,13.50
2018-04-22T04:52:57.562Z,12.60
2018-04-22T04:53:30.830Z,13.80
2018-04-22T04:54:04.877Z,12.98
2018-04-22T04:54:38.152Z,12.35
2018-04-22T04:55:11.446Z,12.32
2018-04-22T04:55:44.732Z,13.30
2018-04-22T04:56:18.014Z,13.25
2018-04-22T04:56:51.292Z,12.90
2018-04-22T04:57:24.575Z,13.40
2018-04-22T04:57:57.909Z,13.07
2018-04-22T04:58:31.188Z,13.15
2018-04-22T04:59:04.493Z,13.43
2018-04-22T04:59:37.784Z,12.95
2018-04-22T05:00:11.361Z,12.43
2018-04-22T05:00:44.591Z,13.25
2018-04-22T05:01:18.645Z,11.85
2018-04-22T05:01:51.891Z,12.30
2018-04-22T05:02:25.164Z,12.57
2018-04-22T05:02:58.431Z,12.90
2018-04-22T05:03:31.695Z,13.02
2018-04-22T05:04:05.744Z,12.85
2018-04-22T05:04:39.004Z,12.73
2018-04-22T05:05:12.291Z,11.50
2018-04-22T05:05:45.585Z,12.68
2018-04-22T05:06:18.868Z,13.93
2018-04-22T05:06:52.148Z,12.98
2018-04-22T05:07:25.424Z,12.40
2018-04-22T05:07:58.708Z,12.35
2018-04-22T05:08:31.994Z,13.02
2018-04-22T05:09:06.174Z,12.68
2018-04-22T05:09:39.444Z,12.48
2018-04-22T05:10:12.729Z,12.98
2018-04-22T05:10:46.012Z,12.35
2018-04-22T05:11:19.285Z,12.85
2018-04-22T05:11:52.567Z,11.43
2018-04-22T05:12:25.841Z,12.85
2018-04-22T05:12:59.901Z,12.63
2018-04-22T05:13:33.171Z,13.20
2018-04-22T05:14:06.448Z,12.80
2018-04-22T05:14:39.726Z,13.02
2018-04-22T05:15:13.011Z,12.85
2018-04-22T05:15:46.305Z,11.77
2018-04-22T05:16:19.584Z,11.90
2018-04-22T05:16:52.923Z,13.68
2018-04-22T05:17:26.324Z,13.80
2018-04-22T05:17:59.585Z,13.65
2018-04-22T05:18:32.859Z,14.75
2018-04-22T05:19:06.131Z,13.23
2018-04-22T05:19:39.416Z,13.68
2018-04-22T05:20:12.685Z,14.00
2018-04-22T05:20:45.972Z,14.05
2018-04-22T05:21:20.031Z,12.57
2018-04-22T05:21:53.304Z,14.43
2018-04-22T05:22:26.600Z,14.18
2018-04-22T05:23:00.650Z,14.77
2018-04-22T05:23:33.932Z,15.40
2018-04-22T05:24:07.204Z,14.82
2018-04-22T05:24:40.476Z,15.50
2018-04-22T05:25:13.753Z,14.65
2018-04-22T05:25:47.012Z,14.82
2018-04-22T05:26:21.055Z,13.10
2018-04-22T05:26:54.334Z,14.27
2018-04-22T05:27:27.620Z,14.38
2018-04-22T05:28:00.895Z,14.38
2018-04-22T05:28:34.173Z,16.10
2018-04-22T05:29:07.447Z,15.70
2018-04-22T05:29:40.742Z,14.82
2018-04-22T05:30:14.777Z,14.43
2018-04-22T05:30:48.056Z,13.85
2018-04-22T05:31:22.128Z,14.60
2018-04-22T05:31:55.404Z,16.27
2018-04-22T05:32:28.676Z,14.15
2018-04-22T05:33:01.952Z,13.88
2018-04-22T05:33:35.225Z,14.45
2018-04-22T05:34:08.496Z,15.00
2018-04-22T05:34:41.781Z,14.35
2018-04-22T05:35:15.305Z,14.75
2018-04-22T05:35:48.588Z,13.80
2018-04-22T05:36:21.880Z,14.52
2018-04-22T05:36:55.149Z,12.90
2018-04-22T05:37:28.435Z,13.80
2018-04-22T05:38:01.696Z,14.65
2018-04-22T05:38:34.976Z,15.88
2018-04-22T05:39:08.274Z,16.37
2018-04-22T05:39:41.537Z,14.18
2018-04-22T05:40:14.825Z,12.40
2018-04-22T05:40:48.107Z,15.43
2018-04-22T05:41:21.402Z,14.55
2018-04-22T05:41:54.693Z,15.18
2018-04-22T05:42:28.746Z,16.08
2018-04-22T05:43:02.021Z,15.00
2018-04-22T05:43:35.307Z,14.43
2018-04-22T05:44:08.609Z,13.27
2018-04-22T05:44:42.661Z,15.55
2018-04-22T05:45:15.953Z,15.90
2018-04-22T05:45:49.241Z,13.90
2018-04-22T05:46:22.525Z,13.45
2018-04-22T05:46:55.807Z,15.20
2018-04-22T05:47:29.088Z,14.57
2018-04-22T05:48:02.364Z,15.93
2018-04-22T05:48:35.644Z,14.70
2018-04-22T05:49:08.927Z,15.73
2018-04-22T05:49:42.192Z,12.93
2018-04-22T05:50:15.462Z,14.40
2018-04-22T05:50:48.729Z,14.07
2018-04-22T05:51:22.028Z,12.43
2018-04-22T05:51:55.325Z,13.62
2018-04-22T05:52:28.592Z,13.43
2018-04-22T05:53:01.859Z,15.68
2018-04-22T05:53:35.127Z,14.00
2018-04-22T05:54:08.408Z,14.65
2018-04-22T05:54:41.680Z,13.68
2018-04-22T05:55:15.715Z,14.27
2018-04-22T05:55:48.984Z,14.23
2018-04-22T05:56:22.273Z,15.15
2018-04-22T05:56:55.553Z,13.82
2018-04-22T05:57:28.843Z,12.55
2018-04-22T05:58:02.126Z,15.18
2018-04-22T05:58:35.421Z,15.07
2018-04-22T05:59:08.701Z,15.32
2018-04-22T05:59:41.976Z,14.07
2018-04-22T06:00:15.268Z,11.70
2018-04-22T06:00:48.557Z,14.18
2018-04-22T06:01:21.860Z,14.20
2018-04-22T06:01:55.908Z,15.10
2018-04-22T06:02:29.185Z,13.45
2018-04-22T06:03:02.465Z,12.52
2018-04-22T06:03:35.745Z,12.75
2018-04-22T06:04:09.037Z,11.80
2018-04-22T06:04:42.311Z,13.43
2018-04-22T06:05:15.611Z,12.82
2018-04-22T06:05:48.880Z,13.40
2018-04-22T06:06:22.180Z,14.10
2018-04-22T06:06:55.448Z,14.75
2018-04-22T06:07:28.732Z,14.40
2018-04-22T06:08:02.013Z,15.20
2018-04-22T06:08:35.308Z,14.60
2018-04-22T06:09:08.572Z,14.45
2018-04-22T06:09:41.844Z,13.65
2018-04-22T06:10:15.169Z,13.50
2018-04-22T06:10:49.213Z,15.35
2018-04-22T06:11:22.539Z,15.95
2018-04-22T06:11:56.576Z,14.23
2018-04-22T06:12:29.857Z,15.25
2018-04-22T06:13:03.134Z,15.77
2018-04-22T06:13:36.401Z,15.27
2018-04-22T06:14:09.667Z,15.90
2018-04-22T06:14:42.954Z,16.52
2018-04-22T06:15:16.224Z,15.20
2018-04-22T06:15:50.281Z,15.50
2018-04-22T06:16:23.577Z,13.62
2018-04-22T06:16:56.845Z,14.10
2018-04-22T06:17:30.121Z,14.35
2018-04-22T06:18:03.393Z,13.75
2018-04-22T06:18:36.673Z,13.48
2018-04-22T06:19:09.954Z,14.52
2018-04-22T06:19:43.225Z,14.38
2018-04-22T06:20:16.531Z,13.88
2018-04-22T06:20:49.795Z,14.00
2018-04-22T06:21:23.882Z,13.27
2018-04-22T06:21:57.162Z,13.20
2018-04-22T06:22:30.769Z,13.68
2018-04-22T06:23:04.083Z,14.13
2018-04-22T06:23:37.361Z,13.80
2018-04-22T06:24:10.641Z,13.45
2018-04-22T06:24:44.693Z,14.95
2018-04-22T06:25:18.727Z,12.95
2018-04-22T06:25:52.025Z,12.77
2018-04-22T06:26:25.319Z,14.25
2018-04-22T06:26:58.596Z,14.13
2018-04-22T06:27:31.876Z,11.95
2018-04-22T06:28:05.156Z,13.10
2018-04-22T06:28:38.436Z,12.82
2018-04-22T06:29:12.485Z,12.32
2018-04-22T06:29:46.543Z,12.75
2018-04-22T06:30:19.816Z,13.10
2018-04-22T06:30:53.100Z,12.32
2018-04-22T06:31:26.384Z,12.88
2018-04-22T06:31:59.660Z,13.65
2018-04-22T06:32:32.929Z,13.52
2018-04-22T06:33:06.983Z,13.25
2018-04-22T06:33:40.296Z,12.55
2018-04-22T06:34:13.518Z,12.73
2018-04-22T06:34:46.802Z,12.65
2018-04-22T06:35:20.068Z,12.68
2018-04-22T06:35:53.359Z,12.30
2018-04-22T06:36:26.654Z,12.75
2018-04-22T06:36:59.948Z,14.10
2018-04-22T06:37:33.237Z,13.85
2018-04-22T06:38:06.524Z,12.98
2018-04-22T06:38:39.815Z,12.95
2018-04-22T06:39:13.104Z,13.20
2018-04-22T06:39:47.160Z,13.00
2018-04-22T06:40:20.560Z,12.43
2018-04-22T06:40:53.980Z,11.98
2018-04-22T06:41:27.304Z,13.45
2018-04-22T06:42:00.613Z,13.60
2018-04-22T06:42:33.868Z,14.70
2018-04-22T06:43:07.159Z,13.43
2018-04-22T06:43:40.450Z,13.20
2018-04-22T06:44:13.736Z,12.73
2018-04-22T06:44:47.014Z,12.88
2018-04-22T06:45:20.288Z,14.70
2018-04-22T06:45:53.564Z,14.63
2018-04-22T06:46:26.927Z,14.63
2018-04-22T06:47:00.208Z,15.45
2018-04-22T06:47:33.493Z,14.13
2018-04-22T06:48:06.756Z,14.10
2018-04-22T06:48:40.037Z,13.60
2018-04-22T06:49:13.317Z,14.80
2018-04-22T06:49:46.601Z,13.30
2018-04-22T06:50:19.865Z,14.05
2018-04-22T06:50:53.148Z,14.45
2018-04-22T06:51:26.445Z,14.60
2018-04-22T06:51:59.741Z,13.80
2018-04-22T06:52:33.024Z,13.95
2018-04-22T06:53:06.315Z,14.13
2018-04-22T06:53:39.597Z,13.40
2018-04-22T06:54:12.895Z,13.32
2018-04-22T06:54:46.927Z,14.23
2018-04-22T06:55:20.197Z,13.80
2018-04-22T06:55:53.471Z,13.38
2018-04-22T06:56:26.777Z,14.80
2018-04-22T06:57:00.067Z,14.10
2018-04-22T06:57:33.376Z,15.25
2018-04-22T06:58:06.668Z,14.63
2018-04-22T06:58:39.937Z,14.48
2018-04-22T06:59:13.205Z,14.27
2018-04-22T06:59:46.503Z,14.50
2018-04-22T07:00:20.539Z,14.23
2018-04-22T07:00:53.809Z,14.95
2018-04-22T07:01:27.097Z,13.70
2018-04-22T07:02:00.405Z,13.93
2018-04-22T07:02:33.685Z,16.98
2018-04-22T07:03:06.957Z,14.85
2018-04-22T07:03:40.248Z,15.18
2018-04-22T07:04:13.513Z,16.58
2018-04-22T07:04:46.788Z,17.08
2018-04-22T07:05:20.078Z,16.80
2018-04-22T07:05:53.361Z,17.65
2018-04-22T07:06:26.618Z,18.58
2018-04-22T07:06:59.896Z,17.23
2018-04-22T07:07:33.188Z,16.98
2018-04-22T07:08:06.464Z,17.33
2018-04-22T07:08:39.736Z,17.37
2018-04-22T07:09:13.009Z,17.23
2018-04-22T07:09:46.288Z,17.05
2018-04-22T07:10:20.328Z,17.12
2018-04-22T07:10:53.631Z,17.23
2018-04-22T07:11:27.666Z,16.98
2018-04-22T07:12:01.745Z,16.40
2018-04-22T07:12:35.037Z,16.92
2018-04-22T07:13:09.086Z,16.55
2018-04-22T07:13:42.377Z,18.12
2018-04-22T07:14:15.669Z,17.58
2018-04-22T07:14:48.952Z,16.60
2018-04-22T07:15:22.220Z,17.52
2018-04-22T07:15:55.524Z,17.23
2018-04-22T07:16:28.788Z,17.52
2018-04-22T07:17:02.077Z,17.05
2018-04-22T07:17:35.377Z,18.27
2018-04-22T07:18:08.652Z,17.40
2018-04-22T07:18:42.677Z,17.90
2018-04-22T07:19:15.966Z,16.70
2018-04-22T07:19:49.279Z,17.70